createdAt,value
2023-04-06T00:01:24.001Z,98571.25
2023-04-06T00:03:51.261Z,98564.91
2023-04-06T00:06:17.663Z,98561.94
2023-04-06T00:08:45.503Z,98564.97
2023-04-06T00:11:11.879Z,98560.19
2023-04-06T00:13:38.336Z,98563.91
2023-04-06T00:16:06.276Z,98565.09
2023-04-06T00:18:32.865Z,98561.44
2023-04-06T00:20:59.227Z,98565.75
2023-04-06T00:23:25.703Z,98554.38
2023-04-06T00:25:52.056Z,98561.44
2023-04-06T00:28:18.485Z,98563.75
2023-04-06T00:30:44.904Z,98558.25
2023-04-06T00:33:11.537Z,98554.97
2023-04-06T00:35:38.074Z,98554.09
2023-04-06T00:38:04.542Z,98541.56
2023-04-06T00:40:31.988Z,98549.75
2023-04-06T00:42:58.367Z,98544.09
2023-04-06T00:45:24.744Z,98548.94
2023-04-06T00:47:51.558Z,98541.84
2023-04-06T00:50:18.254Z,98550.44
2023-04-06T00:52:44.625Z,98540.38
2023-04-06T00:55:11.139Z,98535.19
2023-04-06T00:57:41.535Z,98536.06
2023-04-06T01:00:08.101Z,98544.69
2023-04-06T01:02:35.393Z,98550.34
2023-04-06T01:05:01.840Z,98543.28
2023-04-06T01:07:36.154Z,98536.28
2023-04-06T01:10:10.363Z,98545.84
2023-04-06T01:12:39.636Z,98534.41
2023-04-06T01:15:12.018Z,98528.78
2023-04-06T01:17:41.577Z,98522.34
2023-04-06T01:20:12.770Z,98529.00
2023-04-06T01:22:39.182Z,98527.81
2023-04-06T01:25:05.964Z,98528.09
2023-04-06T01:28:04.710Z,98529.81
2023-04-06T01:30:47.605Z,98525.94
2023-04-06T01:33:26.006Z,98518.34
2023-04-06T01:36:01.227Z,98520.28
2023-04-06T01:38:27.755Z,98522.00
2023-04-06T01:40:54.554Z,98520.13
2023-04-06T01:43:23.773Z,98516.19
2023-04-06T01:46:00.282Z,98507.31
2023-04-06T01:48:32.171Z,98516.84
2023-04-06T01:51:02.747Z,98510.28
2023-04-06T01:53:32.643Z,98513.56
2023-04-06T01:56:04.354Z,98511.63
2023-04-06T01:58:34.531Z,98507.25
2023-04-06T02:01:01.333Z,98508.06
2023-04-06T02:03:32.524Z,98498.38
2023-04-06T02:06:05.965Z,98506.88
2023-04-06T02:08:37.199Z,98507.63
2023-04-06T02:11:03.599Z,98504.34
2023-04-06T02:13:34.635Z,98507.03
2023-04-06T02:16:02.458Z,98507.47
2023-04-06T02:18:30.671Z,98511.25
2023-04-06T02:20:57.361Z,98512.69
2023-04-06T02:23:23.734Z,98496.31
2023-04-06T02:25:50.314Z,98497.34
2023-04-06T02:28:16.681Z,98500.63
2023-04-06T02:30:43.062Z,98496.47
2023-04-06T02:33:09.781Z,98495.78
2023-04-06T02:35:42.415Z,98505.00
2023-04-06T02:38:08.789Z,98497.03
2023-04-06T02:40:35.270Z,98494.69
2023-04-06T02:43:11.681Z,98497.03
2023-04-06T02:45:38.245Z,98489.69
2023-04-06T02:48:05.111Z,98492.44
2023-04-06T02:50:32.611Z,98489.56
2023-04-06T02:53:02.759Z,98495.75
2023-04-06T02:55:29.278Z,98485.16
2023-04-06T02:57:55.713Z,98485.91
2023-04-06T03:00:27.278Z,98492.91
2023-04-06T03:02:53.820Z,98486.78
2023-04-06T03:05:20.579Z,98488.03
2023-04-06T03:07:47.606Z,98484.28
2023-04-06T03:10:21.797Z,98489.56
2023-04-06T03:12:49.143Z,98478.28
2023-04-06T03:15:34.399Z,98484.81
2023-04-06T03:18:11.699Z,98484.63
2023-04-06T03:20:42.915Z,98478.69
2023-04-06T03:23:10.255Z,98486.72
2023-04-06T03:25:40.808Z,98487.38
2023-04-06T03:28:09.798Z,98488.72
2023-04-06T03:30:43.588Z,98489.81
2023-04-06T03:33:11.647Z,98491.53
2023-04-06T03:35:47.699Z,98491.56
2023-04-06T03:38:14.440Z,98493.66
2023-04-06T03:40:40.975Z,98486.66
2023-04-06T03:43:08.506Z,98491.91
2023-04-06T03:45:36.637Z,98496.38
2023-04-06T03:48:03.713Z,98497.31
2023-04-06T03:50:32.895Z,98498.28
2023-04-06T03:52:59.367Z,98502.00
2023-04-06T03:55:25.821Z,98490.56
2023-04-06T03:57:52.219Z,98500.19
2023-04-06T04:00:18.698Z,98505.84
2023-04-06T04:02:45.172Z,98511.41
2023-04-06T04:05:11.604Z,98504.09
2023-04-06T04:07:38.012Z,98502.00
2023-04-06T04:10:05.661Z,98513.56
2023-04-06T04:12:32.417Z,98513.34
2023-04-06T04:14:59.137Z,98506.44
2023-04-06T04:17:26.002Z,98522.50
2023-04-06T04:19:52.438Z,98516.59
2023-04-06T04:22:18.827Z,98513.00
2023-04-06T04:24:45.421Z,98512.28
2023-04-06T04:27:11.867Z,98511.28
2023-04-06T04:29:39.956Z,98512.34
2023-04-06T04:32:09.176Z,98514.88
2023-04-06T04:34:36.805Z,98520.19
2023-04-06T04:37:05.952Z,98521.38
2023-04-06T04:39:43.896Z,98523.13
2023-04-06T04:42:11.358Z,98521.28
2023-04-06T04:44:43.217Z,98524.63
2023-04-06T04:47:09.823Z,98516.91
2023-04-06T04:49:43.848Z,98514.50
2023-04-06T04:52:12.379Z,98518.50
2023-04-06T04:54:50.496Z,98513.53
2023-04-06T04:57:23.896Z,98517.75
2023-04-06T04:59:51.801Z,98519.53
2023-04-06T05:02:19.251Z,98519.66
2023-04-06T05:04:54.286Z,98523.91
2023-04-06T05:07:24.341Z,98524.34
2023-04-06T05:09:52.940Z,98525.31
2023-04-06T05:12:20.887Z,98530.53
2023-04-06T05:14:55.914Z,98530.97
2023-04-06T05:17:23.272Z,98531.13
2023-04-06T05:19:50.308Z,98530.16
2023-04-06T05:22:22.537Z,98531.56
2023-04-06T05:24:57.590Z,98541.19
2023-04-06T05:27:23.991Z,98539.00
2023-04-06T05:29:51.092Z,98534.72
2023-04-06T05:32:22.816Z,98546.31
2023-04-06T05:34:53.532Z,98547.75
2023-04-06T05:37:19.943Z,98548.56
2023-04-06T05:39:46.665Z,98555.28
2023-04-06T05:42:13.400Z,98551.53
2023-04-06T05:44:50.109Z,98552.38
2023-04-06T05:47:17.342Z,98549.03
2023-04-06T05:49:47.229Z,98546.66
2023-04-06T05:52:21.410Z,98551.88
2023-04-06T05:54:49.891Z,98555.44
2023-04-06T05:57:17.640Z,98559.50
2023-04-06T05:59:44.373Z,98556.56
2023-04-06T06:02:12.782Z,98557.59
2023-04-06T06:04:43.270Z,98557.19
2023-04-06T06:07:09.841Z,98553.97
2023-04-06T06:09:44.299Z,98558.84
2023-04-06T06:12:24.293Z,98561.81
2023-04-06T06:14:50.945Z,98559.44
2023-04-06T06:17:18.349Z,98562.13
2023-04-06T06:19:47.065Z,98566.59
2023-04-06T06:22:13.491Z,98565.69
2023-04-06T06:24:42.886Z,98561.44
2023-04-06T06:27:10.530Z,98562.03
2023-04-06T06:29:38.260Z,98559.44
2023-04-06T06:32:04.810Z,98562.47
2023-04-06T06:34:31.919Z,98562.69
2023-04-06T06:37:00.711Z,98569.97
2023-04-06T06:39:27.240Z,98569.91
2023-04-06T06:41:55.384Z,98571.50
2023-04-06T06:44:39.528Z,98568.81
2023-04-06T06:47:06.025Z,98575.47
2023-04-06T06:49:32.456Z,98572.69
2023-04-06T06:51:59.073Z,98574.03
2023-04-06T06:54:25.659Z,98577.03
2023-04-06T06:56:52.100Z,98576.75
2023-04-06T06:59:18.699Z,98578.72
2023-04-06T07:01:45.249Z,98585.75
2023-04-06T07:04:11.840Z,98582.09
2023-04-06T07:06:38.375Z,98579.22
2023-04-06T07:09:06.681Z,98573.63
2023-04-06T07:11:33.124Z,98583.31
2023-04-06T07:13:59.520Z,98585.88
2023-04-06T07:16:26.362Z,98571.50
2023-04-06T07:18:54.240Z,98586.59
2023-04-06T07:21:20.647Z,98579.25
2023-04-06T07:23:49.013Z,98582.78
2023-04-06T07:26:16.461Z,98585.13
2023-04-06T07:28:42.856Z,98580.28
2023-04-06T07:31:10.177Z,98583.31
2023-04-06T07:33:36.669Z,98585.53
2023-04-06T07:36:03.127Z,98580.81
2023-04-06T07:38:29.792Z,98585.09
2023-04-06T07:40:56.506Z,98581.94
2023-04-06T07:43:23.274Z,98583.94
2023-04-06T07:45:50.077Z,98578.22
2023-04-06T07:48:17.594Z,98578.91
2023-04-06T07:50:44.606Z,98584.53
2023-04-06T07:53:11.390Z,98582.97
2023-04-06T07:55:38.618Z,98580.13
2023-04-06T07:58:05.050Z,98567.41
2023-04-06T08:00:31.414Z,98572.78
2023-04-06T08:02:57.992Z,98574.75
2023-04-06T08:05:24.441Z,98570.50
2023-04-06T08:07:50.920Z,98570.75
2023-04-06T08:10:17.845Z,98576.72
2023-04-06T08:12:44.402Z,98578.63
2023-04-06T08:15:11.110Z,98574.84
2023-04-06T08:17:37.557Z,98579.13
2023-04-06T08:20:04.716Z,98580.56
2023-04-06T08:22:31.261Z,98583.97
2023-04-06T08:24:57.710Z,98579.59
2023-04-06T08:27:24.157Z,98583.28
2023-04-06T08:29:50.777Z,98579.50
2023-04-06T08:32:17.341Z,98579.06
2023-04-06T08:34:45.486Z,98585.56
2023-04-06T08:37:11.869Z,98582.25
2023-04-06T08:39:38.270Z,98578.47
2023-04-06T08:42:04.879Z,98581.34
2023-04-06T08:44:32.923Z,98585.13
2023-04-06T08:47:00.324Z,98576.91
2023-04-06T08:49:27.015Z,98581.03
2023-04-06T08:51:54.000Z,98575.03
2023-04-06T08:54:20.391Z,98577.59
2023-04-06T08:56:46.761Z,98573.31
2023-04-06T08:59:13.169Z,98581.94
2023-04-06T09:01:41.098Z,98575.84
2023-04-06T09:04:10.492Z,98567.16
2023-04-06T09:06:37.929Z,98560.63
2023-04-06T09:09:04.501Z,98556.41
2023-04-06T09:11:41.731Z,98552.06
2023-04-06T09:14:08.460Z,98564.19
2023-04-06T09:16:40.269Z,98560.97
2023-04-06T09:19:06.832Z,98553.88
2023-04-06T09:21:33.441Z,98546.84
2023-04-06T09:24:03.202Z,98546.94
2023-04-06T09:26:29.874Z,98551.16
2023-04-06T09:28:57.153Z,98548.78
2023-04-06T09:31:24.603Z,98552.91
2023-04-06T09:33:51.507Z,98545.72
2023-04-06T09:36:17.885Z,98550.50
2023-04-06T09:38:55.248Z,98546.72
2023-04-06T09:41:26.493Z,98556.19
2023-04-06T09:43:53.534Z,98551.91
2023-04-06T09:46:21.125Z,98550.31
2023-04-06T09:48:47.563Z,98545.34
2023-04-06T09:51:14.567Z,98540.50
2023-04-06T09:53:43.383Z,98538.09
2023-04-06T09:56:13.319Z,98545.19
2023-04-06T09:58:40.368Z,98539.81
2023-04-06T10:01:08.649Z,98540.03
2023-04-06T10:03:41.796Z,98540.97
2023-04-06T10:06:10.951Z,98531.72
2023-04-06T10:08:37.355Z,98544.22
2023-04-06T10:11:03.746Z,98536.47
2023-04-06T10:13:30.501Z,98536.28
2023-04-06T10:15:57.151Z,98537.25
2023-04-06T10:18:23.832Z,98533.56
2023-04-06T10:20:53.076Z,98537.44
2023-04-06T10:23:21.030Z,98529.97
2023-04-06T10:25:54.495Z,98533.28
2023-04-06T10:28:20.952Z,98524.41
2023-04-06T10:30:47.696Z,98528.44
2023-04-06T10:33:14.685Z,98527.13
2023-04-06T10:35:41.163Z,98527.84
2023-04-06T10:38:08.581Z,98532.06
2023-04-06T10:40:39.106Z,98534.13
2023-04-06T10:43:12.632Z,98528.22
2023-04-06T10:45:39.156Z,98524.91
2023-04-06T10:48:15.968Z,98520.47
2023-04-06T10:50:43.067Z,98521.53
2023-04-06T10:53:09.462Z,98513.31
2023-04-06T10:55:35.881Z,98509.75
2023-04-06T10:58:02.290Z,98506.34
2023-04-06T11:00:36.278Z,98511.63
2023-04-06T11:03:13.710Z,98516.38
2023-04-06T11:05:44.995Z,98513.56
2023-04-06T11:08:32.290Z,98512.19
2023-04-06T11:11:11.626Z,98513.25
2023-04-06T11:13:41.853Z,98510.06
2023-04-06T11:16:08.387Z,98508.28
2023-04-06T11:18:34.931Z,98507.28
2023-04-06T11:27:35.193Z,98494.53
2023-04-06T11:30:02.061Z,98485.34
2023-04-06T11:32:28.601Z,98482.06
2023-04-06T11:34:55.091Z,98486.50
2023-04-06T11:37:21.523Z,98487.13
2023-04-06T11:39:50.375Z,98483.38
2023-04-06T11:42:23.669Z,98477.75
2023-04-06T11:44:51.097Z,98470.50
2023-04-06T11:47:17.478Z,98471.78
2023-04-06T11:49:45.946Z,98468.88
2023-04-06T11:52:19.216Z,98464.19
2023-04-06T11:54:46.047Z,98461.22
2023-04-06T11:57:12.423Z,98477.00
2023-04-06T11:59:38.915Z,98467.75
2023-04-06T12:02:05.762Z,98464.13
2023-04-06T12:04:32.234Z,98465.56
2023-04-06T12:06:58.684Z,98460.16
2023-04-06T12:09:25.196Z,98460.88
2023-04-06T12:11:51.700Z,98448.91
2023-04-06T12:14:18.126Z,98456.97
2023-04-06T12:16:44.997Z,98445.41
2023-04-06T12:19:11.424Z,98450.13
2023-04-06T12:21:41.439Z,98441.09
2023-04-06T12:24:07.820Z,98443.41
2023-04-06T12:26:34.260Z,98443.38
2023-04-06T12:29:07.840Z,98439.63
2023-04-06T12:31:35.918Z,98438.91
2023-04-06T12:34:04.083Z,98433.31
2023-04-06T12:36:30.689Z,98438.16
2023-04-06T12:38:57.084Z,98426.88
2023-04-06T12:41:23.739Z,98429.50
2023-04-06T12:43:51.114Z,98428.47
2023-04-06T12:46:18.012Z,98423.78
2023-04-06T12:48:44.537Z,98430.94
2023-04-06T12:51:11.069Z,98421.47
2023-04-06T12:53:37.460Z,98422.28
2023-04-06T12:56:06.709Z,98408.56
2023-04-06T12:58:34.430Z,98425.22
2023-04-06T13:01:04.075Z,98425.06
2023-04-06T13:03:31.566Z,98419.19
2023-04-06T13:05:57.917Z,98425.66
2023-04-06T13:08:24.265Z,98418.88
2023-04-06T13:10:51.777Z,98424.31
2023-04-06T13:13:18.506Z,98414.31
2023-04-06T13:15:45.937Z,98404.47
2023-04-06T13:18:12.497Z,98408.75
2023-04-06T13:20:38.891Z,98404.34
2023-04-06T13:23:05.494Z,98398.75
2023-04-06T13:25:33.592Z,98391.94
2023-04-06T13:28:00.063Z,98399.91
2023-04-06T13:30:27.207Z,98406.31
2023-04-06T13:32:54.367Z,98401.53
2023-04-06T13:35:21.373Z,98396.66
2023-04-06T13:37:47.851Z,98393.09
2023-04-06T13:40:14.507Z,98394.91
2023-04-06T13:42:41.781Z,98384.72
2023-04-06T13:45:08.941Z,98379.44
2023-04-06T13:47:35.880Z,98376.78
2023-04-06T13:50:02.477Z,98376.66
2023-04-06T13:52:29.050Z,98375.13
2023-04-06T13:54:55.511Z,98376.81
2023-04-06T13:57:21.965Z,98374.72
2023-04-06T13:59:50.551Z,98370.84
2023-04-06T14:02:17.356Z,98375.91
2023-04-06T14:04:43.911Z,98375.00
2023-04-06T14:07:10.556Z,98379.22
2023-04-06T14:09:37.083Z,98377.81
2023-04-06T14:12:03.495Z,98371.13
2023-04-06T14:14:30.253Z,98376.06
2023-04-06T14:16:57.047Z,98358.81
2023-04-06T14:19:23.492Z,98371.66
2023-04-06T14:21:50.463Z,98364.97
2023-04-06T14:24:17.239Z,98370.00
2023-04-06T14:26:43.763Z,98367.84
2023-04-06T14:29:10.672Z,98363.41
2023-04-06T14:31:37.106Z,98367.72
2023-04-06T14:34:04.062Z,98369.00
2023-04-06T14:36:37.483Z,98366.06
2023-04-06T14:39:05.711Z,98361.25
2023-04-06T14:41:33.330Z,98360.41
2023-04-06T14:43:59.733Z,98350.72
2023-04-06T14:46:27.712Z,98353.81
2023-04-06T14:48:57.646Z,98353.13
2023-04-06T14:51:30.308Z,98353.63
2023-04-06T14:53:56.845Z,98349.06
2023-04-06T14:56:23.900Z,98349.38
2023-04-06T14:58:51.794Z,98347.94
2023-04-06T15:01:19.290Z,98349.22
2023-04-06T15:03:46.240Z,98346.41
2023-04-06T15:06:15.805Z,98346.31
2023-04-06T15:08:42.854Z,98346.47
2023-04-06T15:11:09.446Z,98350.44
2023-04-06T15:13:35.824Z,98349.00
2023-04-06T15:16:02.277Z,98344.59
2023-04-06T15:18:28.809Z,98344.25
2023-04-06T15:20:55.429Z,98342.41
2023-04-06T15:23:21.807Z,98342.78
2023-04-06T15:25:48.193Z,98340.31
2023-04-06T15:28:14.650Z,98338.44
2023-04-06T15:30:41.143Z,98337.63
2023-04-06T15:33:07.870Z,98334.69
2023-04-06T15:35:43.616Z,98335.53
2023-04-06T15:38:10.629Z,98340.91
2023-04-06T15:40:44.282Z,98335.06
2023-04-06T15:43:10.688Z,98332.59
2023-04-06T15:45:37.581Z,98332.63
2023-04-06T15:48:05.354Z,98336.13
2023-04-06T15:50:33.227Z,98340.81
2023-04-06T15:52:59.615Z,98341.84
2023-04-06T15:55:25.976Z,98339.59
2023-04-06T15:57:52.387Z,98343.22
2023-04-06T16:00:18.935Z,98340.41
2023-04-06T16:02:45.555Z,98339.03
2023-04-06T16:05:12.070Z,98339.69
2023-04-06T16:07:38.453Z,98336.06
2023-04-06T16:10:06.152Z,98343.91
2023-04-06T16:12:35.646Z,98339.84
2023-04-06T16:15:02.086Z,98332.72
2023-04-06T16:17:28.536Z,98334.66
2023-04-06T16:19:55.034Z,98340.66
2023-04-06T16:22:21.639Z,98338.56
2023-04-06T16:24:48.020Z,98338.63
2023-04-06T16:27:14.388Z,98330.94
2023-04-06T16:29:40.778Z,98343.84
2023-04-06T16:32:07.578Z,98347.97
2023-04-06T16:34:34.398Z,98348.16
2023-04-06T16:37:01.666Z,98349.50
2023-04-06T16:39:28.433Z,98350.06
2023-04-06T16:41:54.803Z,98347.28
2023-04-06T16:44:21.601Z,98351.25
2023-04-06T16:46:48.178Z,98344.34
2023-04-06T16:49:14.564Z,98348.44
2023-04-06T16:51:41.419Z,98349.94
2023-04-06T16:54:08.774Z,98346.84
2023-04-06T16:56:35.181Z,98347.34
2023-04-06T16:59:01.558Z,98341.81
2023-04-06T17:01:28.688Z,98340.19
2023-04-06T17:03:56.188Z,98336.22
2023-04-06T17:06:22.703Z,98342.09
2023-04-06T17:08:49.342Z,98343.84
2023-04-06T17:11:18.706Z,98345.81
2023-04-06T17:13:48.530Z,98344.75
2023-04-06T17:16:15.086Z,98350.34
2023-04-06T17:18:41.589Z,98354.44
2023-04-06T17:21:09.057Z,98356.31
2023-04-06T17:23:35.690Z,98357.84
2023-04-06T17:26:05.739Z,98366.53
2023-04-06T17:28:33.948Z,98360.97
2023-04-06T17:31:00.371Z,98356.59
2023-04-06T17:33:27.398Z,98362.47
2023-04-06T17:35:54.020Z,98361.75
2023-04-06T17:38:21.071Z,98363.78
2023-04-06T17:40:47.465Z,98366.19
2023-04-06T17:43:13.882Z,98363.94
2023-04-06T17:45:40.718Z,98369.97
2023-04-06T17:48:07.486Z,98372.34
2023-04-06T17:50:34.616Z,98368.88
2023-04-06T17:53:01.365Z,98367.09
2023-04-06T17:55:27.824Z,98370.59
2023-04-06T17:57:54.245Z,98379.22
2023-04-06T18:00:24.217Z,98380.06
2023-04-06T18:02:54.335Z,98383.16
2023-04-06T18:05:21.240Z,98391.41
2023-04-06T18:07:48.102Z,98388.47
2023-04-06T18:10:14.485Z,98397.72
2023-04-06T18:12:40.943Z,98394.28
2023-04-06T18:15:07.437Z,98397.38
2023-04-06T18:17:34.217Z,98396.34
2023-04-06T18:20:00.762Z,98396.28
2023-04-06T18:22:27.598Z,98405.84
2023-04-06T18:24:53.961Z,98400.41
2023-04-06T18:27:21.533Z,98401.91
2023-04-06T18:29:48.008Z,98412.94
2023-04-06T18:32:14.955Z,98414.94
2023-04-06T18:34:41.398Z,98420.34
2023-04-06T18:37:07.893Z,98416.75
2023-04-06T18:39:34.317Z,98409.53
2023-04-06T18:42:00.918Z,98410.44
2023-04-06T18:44:27.409Z,98408.44
2023-04-06T18:46:55.485Z,98411.00
2023-04-06T18:49:22.399Z,98418.16
2023-04-06T18:51:48.801Z,98405.75
2023-04-06T18:54:15.528Z,98417.03
2023-04-06T18:56:41.986Z,98416.25
2023-04-06T18:59:09.120Z,98419.28
2023-04-06T19:01:35.637Z,98415.53
2023-04-06T19:04:02.632Z,98416.47
2023-04-06T19:06:29.210Z,98423.13
2023-04-06T19:08:56.235Z,98421.25
2023-04-06T19:11:24.981Z,98424.56
2023-04-06T19:13:52.853Z,98429.31
2023-04-06T19:16:19.323Z,98433.41
2023-04-06T19:18:45.856Z,98431.03
2023-04-06T19:21:18.701Z,98428.03
2023-04-06T19:23:45.422Z,98436.97
2023-04-06T19:26:12.357Z,98434.66
2023-04-06T19:28:38.936Z,98432.16
2023-04-06T19:31:08.788Z,98431.28
2023-04-06T19:33:35.978Z,98438.38
2023-04-06T19:36:02.499Z,98436.56
2023-04-06T19:38:29.095Z,98440.44
2023-04-06T19:40:56.559Z,98442.88
2023-04-06T19:43:23.052Z,98433.41
2023-04-06T19:45:49.595Z,98438.69
2023-04-06T19:48:16.570Z,98439.50
2023-04-06T19:50:43.006Z,98434.34
2023-04-06T19:53:09.457Z,98438.22
2023-04-06T19:55:36.964Z,98439.53
2023-04-06T19:58:03.827Z,98439.13
2023-04-06T20:00:30.271Z,98439.38
2023-04-06T20:02:56.942Z,98441.16
2023-04-06T20:05:23.402Z,98438.34
2023-04-06T20:07:50.097Z,98445.16
2023-04-06T20:10:16.956Z,98435.91
2023-04-06T20:12:43.788Z,98442.41
2023-04-06T20:15:10.809Z,98442.75
2023-04-06T20:17:37.328Z,98443.19
2023-04-06T20:20:04.532Z,98437.69
2023-04-06T20:22:31.162Z,98438.53
2023-04-06T20:24:57.553Z,98443.59
2023-04-06T20:27:23.956Z,98446.16
2023-04-06T20:29:50.393Z,98437.63
2023-04-06T20:32:20.653Z,98443.50
2023-04-06T20:34:47.798Z,98441.06
2023-04-06T20:37:14.369Z,98446.19
2023-04-06T20:39:41.027Z,98446.59
2023-04-06T20:42:08.468Z,98445.41
2023-04-06T20:44:35.845Z,98442.16
2023-04-06T20:47:03.625Z,98443.66
2023-04-06T20:49:30.059Z,98439.47
2023-04-06T20:51:56.502Z,98444.06
2023-04-06T20:54:23.001Z,98448.06
2023-04-06T20:56:49.471Z,98442.94
2023-04-06T20:59:15.931Z,98434.47
2023-04-06T21:01:42.984Z,98433.16
2023-04-06T21:04:09.636Z,98440.78
2023-04-06T21:06:36.215Z,98440.59
2023-04-06T21:09:02.704Z,98442.38
2023-04-06T21:11:29.635Z,98445.75
2023-04-06T21:13:56.424Z,98446.75
2023-04-06T21:16:23.123Z,98445.81
2023-04-06T21:18:49.593Z,98443.50
2023-04-06T21:21:15.978Z,98443.75
2023-04-06T21:23:42.377Z,98442.06
2023-04-06T21:26:08.816Z,98447.75
2023-04-06T21:28:35.394Z,98439.84
2023-04-06T21:31:01.783Z,98444.53
2023-04-06T21:33:28.291Z,98441.53
2023-04-06T21:35:54.675Z,98441.81
2023-04-06T21:38:21.184Z,98433.97
2023-04-06T21:40:53.869Z,98433.38
2023-04-06T21:43:20.256Z,98443.03
2023-04-06T21:45:50.883Z,98432.97
2023-04-06T21:48:17.457Z,98440.19
2023-04-06T21:50:43.958Z,98448.34
2023-04-06T21:53:10.580Z,98450.19
2023-04-06T21:55:41.843Z,98458.25
2023-04-06T21:58:09.065Z,98451.22
2023-04-06T22:00:35.553Z,98450.91
2023-04-06T22:03:02.181Z,98453.88
2023-04-06T22:05:28.736Z,98452.16
2023-04-06T22:07:57.093Z,98447.53
2023-04-06T22:10:23.715Z,98447.41
2023-04-06T22:12:50.668Z,98445.75
2023-04-06T22:15:17.386Z,98456.06
2023-04-06T22:17:43.801Z,98450.38
2023-04-06T22:20:10.455Z,98450.56
2023-04-06T22:22:36.866Z,98452.75
2023-04-06T22:25:03.528Z,98453.88
2023-04-06T22:27:29.899Z,98451.66
2023-04-06T22:29:56.527Z,98450.94
2023-04-06T22:32:23.041Z,98446.66
2023-04-06T22:34:49.560Z,98449.78
2023-04-06T22:37:15.966Z,98445.69
2023-04-06T22:39:42.432Z,98440.94
2023-04-06T22:42:09.067Z,98436.69
2023-04-06T22:44:35.499Z,98437.59
2023-04-06T22:47:02.219Z,98430.56
2023-04-06T22:49:28.645Z,98437.97
2023-04-06T22:51:55.153Z,98432.78
2023-04-06T22:54:21.788Z,98420.75
2023-04-06T22:56:48.368Z,98427.06
2023-04-06T22:59:14.756Z,98432.06
2023-04-06T23:01:41.449Z,98417.97
2023-04-06T23:04:08.047Z,98419.06
2023-04-06T23:06:34.588Z,98425.38
2023-04-06T23:09:01.246Z,98424.25
2023-04-06T23:11:27.643Z,98420.56
2023-04-06T23:13:54.029Z,98418.34
2023-04-06T23:16:20.733Z,98416.69
2023-04-06T23:18:47.155Z,98410.97
2023-04-06T23:21:13.513Z,98408.72
2023-04-06T23:23:39.963Z,98400.44
2023-04-06T23:26:07.158Z,98403.41
2023-04-06T23:28:33.555Z,98389.16
2023-04-06T23:30:59.926Z,98401.38
2023-04-06T23:33:26.985Z,98386.38
2023-04-06T23:35:53.345Z,98389.13
2023-04-06T23:38:19.733Z,98380.41
2023-04-06T23:40:46.457Z,98380.78
2023-04-06T23:43:12.900Z,98378.53
2023-04-06T23:45:39.891Z,98376.91
2023-04-06T23:48:06.559Z,98375.22
2023-04-06T23:50:34.687Z,98371.31
2023-04-06T23:53:01.862Z,98364.69
2023-04-06T23:55:28.228Z,98364.47
2023-04-06T23:57:55.554Z,98360.03
